sensor_id;sensor_type;location;lat;lon;timestamp;P1;durP1;ratioP1;P2;durP2;ratioP2
73107;SDS011;61559;50.476;15.588;2024-02-14T00:01:57;15.50;;;8.60;;
73107;SDS011;61559;50.476;15.588;2024-02-14T00:04:29;14.70;;;7.80;;
73107;SDS011;61559;50.476;15.588;2024-02-14T00:07:00;15.20;;;8.30;;
73107;SDS011;61559;50.476;15.588;2024-02-14T00:09:31;14.50;;;8.30;;
73107;SDS011;61559;50.476;15.588;2024-02-14T00:12:02;17.00;;;9.50;;
73107;SDS011;61559;50.476;15.588;2024-02-14T00:14:34;18.10;;;10.00;;
73107;SDS011;61559;50.476;15.588;2024-02-14T00:17:05;15.10;;;7.70;;
73107;SDS011;61559;50.476;15.588;2024-02-14T00:19:38;18.30;;;7.70;;
73107;SDS011;61559;50.476;15.588;2024-02-14T00:22:10;14.20;;;7.30;;
73107;SDS011;61559;50.476;15.588;2024-02-14T00:24:41;18.20;;;7.60;;
73107;SDS011;61559;50.476;15.588;2024-02-14T00:27:12;17.00;;;8.20;;
73107;SDS011;61559;50.476;15.588;2024-02-14T00:29:43;19.00;;;9.70;;
73107;SDS011;61559;50.476;15.588;2024-02-14T00:32:15;21.80;;;10.80;;
73107;SDS011;61559;50.476;15.588;2024-02-14T00:34:46;22.60;;;10.60;;
73107;SDS011;61559;50.476;15.588;2024-02-14T00:37:19;18.10;;;9.90;;
73107;SDS011;61559;50.476;15.588;2024-02-14T00:39:51;20.50;;;9.50;;
73107;SDS011;61559;50.476;15.588;2024-02-14T00:42:24;17.20;;;9.30;;
73107;SDS011;61559;50.476;15.588;2024-02-14T00:44:56;15.10;;;8.20;;
73107;SDS011;61559;50.476;15.588;2024-02-14T00:47:30;19.70;;;8.40;;
73107;SDS011;61559;50.476;15.588;2024-02-14T00:50:03;15.00;;;7.90;;
73107;SDS011;61559;50.476;15.588;2024-02-14T00:52:36;13.60;;;7.40;;
73107;SDS011;61559;50.476;15.588;2024-02-14T00:55:08;15.20;;;7.40;;
73107;SDS011;61559;50.476;15.588;2024-02-14T00:57:39;14.20;;;7.90;;
73107;SDS011;61559;50.476;15.588;2024-02-14T01:00:11;15.00;;;8.20;;
73107;SDS011;61559;50.476;15.588;2024-02-14T01:02:45;17.40;;;8.90;;
73107;SDS011;61559;50.476;15.588;2024-02-14T01:05:17;16.50;;;7.70;;
73107;SDS011;61559;50.476;15.588;2024-02-14T01:07:48;11.80;;;6.90;;
73107;SDS011;61559;50.476;15.588;2024-02-14T01:10:22;13.20;;;8.00;;
73107;SDS011;61559;50.476;15.588;2024-02-14T01:12:53;14.70;;;8.30;;
73107;SDS011;61559;50.476;15.588;2024-02-14T01:15:25;14.50;;;7.80;;
73107;SDS011;61559;50.476;15.588;2024-02-14T01:17:56;16.20;;;8.00;;
73107;SDS011;61559;50.476;15.588;2024-02-14T01:20:28;15.90;;;7.60;;
73107;SDS011;61559;50.476;15.588;2024-02-14T01:23:00;12.50;;;7.30;;
73107;SDS011;61559;50.476;15.588;2024-02-14T01:25:31;15.40;;;8.00;;
73107;SDS011;61559;50.476;15.588;2024-02-14T01:28:02;20.90;;;9.70;;
73107;SDS011;61559;50.476;15.588;2024-02-14T01:30:36;23.60;;;12.10;;
73107;SDS011;61559;50.476;15.588;2024-02-14T01:33:07;16.40;;;9.40;;
73107;SDS011;61559;50.476;15.588;2024-02-14T01:35:39;16.20;;;9.10;;
73107;SDS011;61559;50.476;15.588;2024-02-14T01:38:11;17.40;;;8.80;;
73107;SDS011;61559;50.476;15.588;2024-02-14T01:40:43;13.80;;;7.70;;
73107;SDS011;61559;50.476;15.588;2024-02-14T01:43:14;14.90;;;8.50;;
73107;SDS011;61559;50.476;15.588;2024-02-14T01:45:46;16.90;;;8.90;;
73107;SDS011;61559;50.476;15.588;2024-02-14T01:48:17;15.70;;;7.90;;
73107;SDS011;61559;50.476;15.588;2024-02-14T01:50:49;17.40;;;8.10;;
73107;SDS011;61559;50.476;15.588;2024-02-14T01:53:20;16.50;;;8.90;;
73107;SDS011;61559;50.476;15.588;2024-02-14T01:55:51;16.10;;;8.10;;
73107;SDS011;61559;50.476;15.588;2024-02-14T02:00:52;13.40;;;7.10;;
73107;SDS011;61559;50.476;15.588;2024-02-14T02:03:30;12.50;;;7.30;;
73107;SDS011;61559;50.476;15.588;2024-02-14T02:06:05;15.10;;;7.40;;
73107;SDS011;61559;50.476;15.588;2024-02-14T02:08:36;12.40;;;7.70;;
73107;SDS011;61559;50.476;15.588;2024-02-14T02:11:07;15.30;;;8.60;;
73107;SDS011;61559;50.476;15.588;2024-02-14T02:13:38;18.80;;;9.20;;
73107;SDS011;61559;50.476;15.588;2024-02-14T02:18:41;13.20;;;7.10;;
73107;SDS011;61559;50.476;15.588;2024-02-14T02:21:12;14.70;;;7.90;;
73107;SDS011;61559;50.476;15.588;2024-02-14T02:23:44;17.80;;;8.00;;
73107;SDS011;61559;50.476;15.588;2024-02-14T02:26:15;17.40;;;8.50;;
73107;SDS011;61559;50.476;15.588;2024-02-14T02:28:47;15.40;;;7.90;;
73107;SDS011;61559;50.476;15.588;2024-02-14T02:31:19;15.50;;;8.60;;
73107;SDS011;61559;50.476;15.588;2024-02-14T02:33:50;18.10;;;10.10;;
73107;SDS011;61559;50.476;15.588;2024-02-14T02:36:21;22.10;;;11.00;;
73107;SDS011;61559;50.476;15.588;2024-02-14T02:41:23;11.80;;;7.20;;
73107;SDS011;61559;50.476;15.588;2024-02-14T02:46:24;14.00;;;6.60;;
73107;SDS011;61559;50.476;15.588;2024-02-14T02:51:27;14.90;;;7.80;;
73107;SDS011;61559;50.476;15.588;2024-02-14T02:53:58;21.70;;;8.80;;
73107;SDS011;61559;50.476;15.588;2024-02-14T02:56:30;14.10;;;7.50;;
73107;SDS011;61559;50.476;15.588;2024-02-14T02:59:02;14.50;;;7.20;;
73107;SDS011;61559;50.476;15.588;2024-02-14T03:01:36;12.90;;;7.00;;
73107;SDS011;61559;50.476;15.588;2024-02-14T03:04:08;14.90;;;7.90;;
73107;SDS011;61559;50.476;15.588;2024-02-14T03:06:42;12.80;;;7.10;;
73107;SDS011;61559;50.476;15.588;2024-02-14T03:09:13;16.80;;;8.30;;
73107;SDS011;61559;50.476;15.588;2024-02-14T03:11:47;17.60;;;8.90;;
73107;SDS011;61559;50.476;15.588;2024-02-14T03:14:18;19.60;;;9.20;;
73107;SDS011;61559;50.476;15.588;2024-02-14T03:16:49;21.70;;;10.30;;
73107;SDS011;61559;50.476;15.588;2024-02-14T03:19:20;16.00;;;9.30;;
73107;SDS011;61559;50.476;15.588;2024-02-14T03:21:52;20.30;;;9.20;;
73107;SDS011;61559;50.476;15.588;2024-02-14T03:24:24;14.00;;;7.60;;
73107;SDS011;61559;50.476;15.588;2024-02-14T03:26:55;14.60;;;7.60;;
73107;SDS011;61559;50.476;15.588;2024-02-14T03:31:56;11.60;;;6.80;;
73107;SDS011;61559;50.476;15.588;2024-02-14T03:34:33;14.90;;;7.10;;
73107;SDS011;61559;50.476;15.588;2024-02-14T03:39:35;10.30;;;5.80;;
73107;SDS011;61559;50.476;15.588;2024-02-14T03:42:07;11.60;;;7.00;;
73107;SDS011;61559;50.476;15.588;2024-02-14T03:44:38;12.10;;;6.40;;
73107;SDS011;61559;50.476;15.588;2024-02-14T03:47:09;12.40;;;6.50;;
73107;SDS011;61559;50.476;15.588;2024-02-14T03:49:40;10.20;;;6.30;;
73107;SDS011;61559;50.476;15.588;2024-02-14T03:52:12;11.50;;;7.10;;
73107;SDS011;61559;50.476;15.588;2024-02-14T03:54:43;14.10;;;6.80;;
73107;SDS011;61559;50.476;15.588;2024-02-14T03:57:14;19.00;;;8.40;;
73107;SDS011;61559;50.476;15.588;2024-02-14T03:59:46;14.50;;;7.10;;
73107;SDS011;61559;50.476;15.588;2024-02-14T04:04:47;16.30;;;7.00;;
73107;SDS011;61559;50.476;15.588;2024-02-14T04:07:19;16.00;;;6.90;;
73107;SDS011;61559;50.476;15.588;2024-02-14T04:09:50;11.00;;;6.00;;
73107;SDS011;61559;50.476;15.588;2024-02-14T04:12:21;13.70;;;7.30;;
73107;SDS011;61559;50.476;15.588;2024-02-14T04:14:52;16.80;;;8.90;;
73107;SDS011;61559;50.476;15.588;2024-02-14T04:17:24;16.00;;;8.00;;
73107;SDS011;61559;50.476;15.588;2024-02-14T04:19:55;15.00;;;7.80;;
73107;SDS011;61559;50.476;15.588;2024-02-14T04:22:26;13.40;;;7.30;;
73107;SDS011;61559;50.476;15.588;2024-02-14T04:24:57;11.70;;;5.70;;
73107;SDS011;61559;50.476;15.588;2024-02-14T04:27:30;11.20;;;6.00;;
73107;SDS011;61559;50.476;15.588;2024-02-14T04:30:02;12.50;;;6.40;;
73107;SDS011;61559;50.476;15.588;2024-02-14T04:32:34;13.80;;;7.10;;
73107;SDS011;61559;50.476;15.588;2024-02-14T04:35:05;13.10;;;7.40;;
73107;SDS011;61559;50.476;15.588;2024-02-14T04:37:37;14.10;;;6.70;;
73107;SDS011;61559;50.476;15.588;2024-02-14T04:40:12;11.30;;;6.20;;
73107;SDS011;61559;50.476;15.588;2024-02-14T04:42:43;14.90;;;6.50;;
73107;SDS011;61559;50.476;15.588;2024-02-14T04:45:15;14.80;;;6.60;;
73107;SDS011;61559;50.476;15.588;2024-02-14T04:47:47;14.10;;;6.80;;
73107;SDS011;61559;50.476;15.588;2024-02-14T04:50:18;11.10;;;5.40;;
73107;SDS011;61559;50.476;15.588;2024-02-14T04:52:49;15.90;;;7.60;;
73107;SDS011;61559;50.476;15.588;2024-02-14T04:55:21;12.10;;;6.70;;
73107;SDS011;61559;50.476;15.588;2024-02-14T04:57:52;13.20;;;6.80;;
73107;SDS011;61559;50.476;15.588;2024-02-14T05:00:23;11.90;;;5.80;;
73107;SDS011;61559;50.476;15.588;2024-02-14T05:02:54;11.90;;;6.40;;
73107;SDS011;61559;50.476;15.588;2024-02-14T05:05:26;17.00;;;7.50;;
73107;SDS011;61559;50.476;15.588;2024-02-14T05:07:57;16.10;;;9.00;;
73107;SDS011;61559;50.476;15.588;2024-02-14T05:10:30;15.20;;;8.70;;
73107;SDS011;61559;50.476;15.588;2024-02-14T05:13:02;14.90;;;7.90;;
73107;SDS011;61559;50.476;15.588;2024-02-14T05:15:34;17.50;;;7.40;;
73107;SDS011;61559;50.476;15.588;2024-02-14T05:18:05;13.40;;;6.90;;
73107;SDS011;61559;50.476;15.588;2024-02-14T05:20:38;12.50;;;7.80;;
73107;SDS011;61559;50.476;15.588;2024-02-14T05:23:09;14.20;;;7.60;;
73107;SDS011;61559;50.476;15.588;2024-02-14T05:25:40;21.30;;;9.90;;
73107;SDS011;61559;50.476;15.588;2024-02-14T05:28:11;23.20;;;11.50;;
73107;SDS011;61559;50.476;15.588;2024-02-14T05:30:42;21.70;;;11.20;;
73107;SDS011;61559;50.476;15.588;2024-02-14T05:33:14;24.80;;;11.40;;
73107;SDS011;61559;50.476;15.588;2024-02-14T05:35:47;21.30;;;9.80;;
73107;SDS011;61559;50.476;15.588;2024-02-14T05:38:18;23.80;;;10.50;;
73107;SDS011;61559;50.476;15.588;2024-02-14T05:40:49;18.10;;;9.40;;
73107;SDS011;61559;50.476;15.588;2024-02-14T05:43:20;21.70;;;9.20;;
73107;SDS011;61559;50.476;15.588;2024-02-14T05:45:52;19.10;;;9.30;;
73107;SDS011;61559;50.476;15.588;2024-02-14T05:48:24;18.20;;;9.80;;
73107;SDS011;61559;50.476;15.588;2024-02-14T05:50:55;18.00;;;9.90;;
73107;SDS011;61559;50.476;15.588;2024-02-14T05:53:27;17.10;;;9.20;;
73107;SDS011;61559;50.476;15.588;2024-02-14T05:55:57;16.10;;;10.20;;
73107;SDS011;61559;50.476;15.588;2024-02-14T05:58:29;19.50;;;9.40;;
73107;SDS011;61559;50.476;15.588;2024-02-14T06:01:00;15.00;;;8.60;;
73107;SDS011;61559;50.476;15.588;2024-02-14T06:03:31;26.10;;;12.00;;
73107;SDS011;61559;50.476;15.588;2024-02-14T06:06:02;37.70;;;19.00;;
73107;SDS011;61559;50.476;15.588;2024-02-14T06:08:34;31.70;;;15.20;;
73107;SDS011;61559;50.476;15.588;2024-02-14T06:11:05;21.40;;;10.60;;
73107;SDS011;61559;50.476;15.588;2024-02-14T06:13:36;16.90;;;8.90;;
73107;SDS011;61559;50.476;15.588;2024-02-14T06:16:09;16.00;;;8.20;;
73107;SDS011;61559;50.476;15.588;2024-02-14T06:18:40;20.20;;;9.00;;
73107;SDS011;61559;50.476;15.588;2024-02-14T06:21:12;16.80;;;8.00;;
73107;SDS011;61559;50.476;15.588;2024-02-14T06:23:43;13.50;;;7.20;;
73107;SDS011;61559;50.476;15.588;2024-02-14T06:26:15;15.70;;;7.10;;
73107;SDS011;61559;50.476;15.588;2024-02-14T06:28:46;19.50;;;8.30;;
73107;SDS011;61559;50.476;15.588;2024-02-14T06:31:22;21.50;;;9.80;;
73107;SDS011;61559;50.476;15.588;2024-02-14T06:33:53;19.50;;;10.10;;
73107;SDS011;61559;50.476;15.588;2024-02-14T06:36:25;20.40;;;10.00;;
73107;SDS011;61559;50.476;15.588;2024-02-14T06:38:56;16.10;;;9.30;;
73107;SDS011;61559;50.476;15.588;2024-02-14T06:41:27;17.90;;;10.00;;
73107;SDS011;61559;50.476;15.588;2024-02-14T06:44:00;16.50;;;9.40;;
73107;SDS011;61559;50.476;15.588;2024-02-14T06:46:31;29.90;;;15.40;;
73107;SDS011;61559;50.476;15.588;2024-02-14T06:49:04;36.70;;;18.20;;
73107;SDS011;61559;50.476;15.588;2024-02-14T06:51:36;23.50;;;11.80;;
73107;SDS011;61559;50.476;15.588;2024-02-14T06:54:07;17.10;;;9.90;;
73107;SDS011;61559;50.476;15.588;2024-02-14T06:56:38;29.30;;;13.50;;
73107;SDS011;61559;50.476;15.588;2024-02-14T06:59:09;25.30;;;13.20;;
73107;SDS011;61559;50.476;15.588;2024-02-14T07:01:40;23.00;;;11.50;;
73107;SDS011;61559;50.476;15.588;2024-02-14T07:04:11;16.20;;;10.00;;
73107;SDS011;61559;50.476;15.588;2024-02-14T07:06:42;14.80;;;7.80;;
73107;SDS011;61559;50.476;15.588;2024-02-14T07:09:14;15.60;;;8.80;;
73107;SDS011;61559;50.476;15.588;2024-02-14T07:11:45;15.10;;;8.10;;
73107;SDS011;61559;50.476;15.588;2024-02-14T07:14:16;15.10;;;7.80;;
73107;SDS011;61559;50.476;15.588;2024-02-14T07:16:47;15.40;;;7.80;;
73107;SDS011;61559;50.476;15.588;2024-02-14T07:19:19;13.80;;;7.50;;
73107;SDS011;61559;50.476;15.588;2024-02-14T07:21:50;15.10;;;8.30;;
73107;SDS011;61559;50.476;15.588;2024-02-14T07:24:21;20.20;;;9.10;;
73107;SDS011;61559;50.476;15.588;2024-02-14T07:26:52;14.10;;;7.60;;
73107;SDS011;61559;50.476;15.588;2024-02-14T07:29:23;14.60;;;7.00;;
73107;SDS011;61559;50.476;15.588;2024-02-14T07:31:55;11.30;;;7.10;;
73107;SDS011;61559;50.476;15.588;2024-02-14T07:34:31;14.60;;;8.10;;
73107;SDS011;61559;50.476;15.588;2024-02-14T07:37:02;14.10;;;7.20;;
73107;SDS011;61559;50.476;15.588;2024-02-14T07:39:33;16.10;;;7.80;;
73107;SDS011;61559;50.476;15.588;2024-02-14T07:42:05;16.50;;;8.80;;
73107;SDS011;61559;50.476;15.588;2024-02-14T07:44:36;17.90;;;9.10;;
73107;SDS011;61559;50.476;15.588;2024-02-14T07:47:07;25.90;;;12.20;;
73107;SDS011;61559;50.476;15.588;2024-02-14T07:49:39;28.80;;;12.10;;
73107;SDS011;61559;50.476;15.588;2024-02-14T07:52:10;16.10;;;9.50;;
73107;SDS011;61559;50.476;15.588;2024-02-14T07:54:41;19.80;;;10.20;;
73107;SDS011;61559;50.476;15.588;2024-02-14T07:57:12;26.50;;;12.10;;
73107;SDS011;61559;50.476;15.588;2024-02-14T07:59:43;20.20;;;10.20;;
73107;SDS011;61559;50.476;15.588;2024-02-14T08:02:14;24.70;;;13.10;;
73107;SDS011;61559;50.476;15.588;2024-02-14T08:04:46;28.20;;;14.00;;
73107;SDS011;61559;50.476;15.588;2024-02-14T08:07:20;29.60;;;14.20;;
73107;SDS011;61559;50.476;15.588;2024-02-14T08:09:51;31.30;;;16.00;;
73107;SDS011;61559;50.476;15.588;2024-02-14T08:12:22;29.90;;;16.00;;
73107;SDS011;61559;50.476;15.588;2024-02-14T08:14:54;34.30;;;18.60;;
73107;SDS011;61559;50.476;15.588;2024-02-14T08:17:25;35.00;;;17.80;;
73107;SDS011;61559;50.476;15.588;2024-02-14T08:19:56;44.50;;;23.50;;
73107;SDS011;61559;50.476;15.588;2024-02-14T08:22:29;44.80;;;22.30;;
73107;SDS011;61559;50.476;15.588;2024-02-14T08:25:01;44.00;;;23.10;;
73107;SDS011;61559;50.476;15.588;2024-02-14T08:27:32;43.50;;;21.60;;
73107;SDS011;61559;50.476;15.588;2024-02-14T08:30:03;42.00;;;22.20;;
73107;SDS011;61559;50.476;15.588;2024-02-14T08:32:37;41.50;;;20.60;;
73107;SDS011;61559;50.476;15.588;2024-02-14T08:35:08;47.40;;;22.80;;
73107;SDS011;61559;50.476;15.588;2024-02-14T08:37:42;45.00;;;23.30;;
73107;SDS011;61559;50.476;15.588;2024-02-14T08:40:13;48.20;;;22.30;;
73107;SDS011;61559;50.476;15.588;2024-02-14T08:42:45;41.40;;;20.70;;
73107;SDS011;61559;50.476;15.588;2024-02-14T08:45:16;54.70;;;23.90;;
73107;SDS011;61559;50.476;15.588;2024-02-14T08:47:47;56.10;;;25.10;;
73107;SDS011;61559;50.476;15.588;2024-02-14T08:50:18;51.90;;;23.90;;
73107;SDS011;61559;50.476;15.588;2024-02-14T08:52:49;53.20;;;23.90;;
73107;SDS011;61559;50.476;15.588;2024-02-14T08:55:21;54.90;;;23.70;;
73107;SDS011;61559;50.476;15.588;2024-02-14T08:57:52;62.10;;;27.40;;
73107;SDS011;61559;50.476;15.588;2024-02-14T09:00:23;38.30;;;17.70;;
73107;SDS011;61559;50.476;15.588;2024-02-14T09:02:54;30.10;;;12.60;;
73107;SDS011;61559;50.476;15.588;2024-02-14T09:05:29;29.60;;;14.40;;
73107;SDS011;61559;50.476;15.588;2024-02-14T09:08:01;25.50;;;13.30;;
73107;SDS011;61559;50.476;15.588;2024-02-14T09:10:32;21.50;;;10.30;;
73107;SDS011;61559;50.476;15.588;2024-02-14T09:13:03;15.80;;;9.20;;
73107;SDS011;61559;50.476;15.588;2024-02-14T09:15:36;18.50;;;8.10;;
73107;SDS011;61559;50.476;15.588;2024-02-14T09:18:07;18.20;;;8.70;;
73107;SDS011;61559;50.476;15.588;2024-02-14T09:20:38;17.10;;;8.40;;
73107;SDS011;61559;50.476;15.588;2024-02-14T09:23:09;19.40;;;9.00;;
73107;SDS011;61559;50.476;15.588;2024-02-14T09:25:41;17.80;;;9.10;;
73107;SDS011;61559;50.476;15.588;2024-02-14T09:28:13;18.20;;;8.20;;
73107;SDS011;61559;50.476;15.588;2024-02-14T09:30:45;16.60;;;8.60;;
73107;SDS011;61559;50.476;15.588;2024-02-14T09:35:45;15.00;;;7.70;;
73107;SDS011;61559;50.476;15.588;2024-02-14T09:38:18;17.00;;;7.90;;
73107;SDS011;61559;50.476;15.588;2024-02-14T09:40:49;14.80;;;7.80;;
73107;SDS011;61559;50.476;15.588;2024-02-14T09:43:24;13.90;;;7.40;;
73107;SDS011;61559;50.476;15.588;2024-02-14T09:46:04;14.40;;;7.30;;
73107;SDS011;61559;50.476;15.588;2024-02-14T09:48:36;13.90;;;7.40;;
73107;SDS011;61559;50.476;15.588;2024-02-14T09:51:11;14.00;;;7.50;;
73107;SDS011;61559;50.476;15.588;2024-02-14T09:53:42;13.10;;;6.70;;
73107;SDS011;61559;50.476;15.588;2024-02-14T09:56:14;12.70;;;7.00;;
73107;SDS011;61559;50.476;15.588;2024-02-14T09:58:47;13.20;;;7.50;;
73107;SDS011;61559;50.476;15.588;2024-02-14T10:01:24;14.10;;;7.30;;
73107;SDS011;61559;50.476;15.588;2024-02-14T10:03:55;14.00;;;7.90;;
73107;SDS011;61559;50.476;15.588;2024-02-14T10:06:27;15.10;;;7.90;;
73107;SDS011;61559;50.476;15.588;2024-02-14T10:08:59;13.70;;;7.30;;
73107;SDS011;61559;50.476;15.588;2024-02-14T10:11:32;14.80;;;7.20;;
73107;SDS011;61559;50.476;15.588;2024-02-14T10:14:05;13.90;;;7.30;;
73107;SDS011;61559;50.476;15.588;2024-02-14T10:16:40;11.60;;;7.10;;
73107;SDS011;61559;50.476;15.588;2024-02-14T10:19:17;16.00;;;8.10;;
73107;SDS011;61559;50.476;15.588;2024-02-14T10:21:56;27.00;;;12.60;;
73107;SDS011;61559;50.476;15.588;2024-02-14T10:24:28;21.80;;;11.50;;
73107;SDS011;61559;50.476;15.588;2024-02-14T10:27:00;16.20;;;9.10;;
73107;SDS011;61559;50.476;15.588;2024-02-14T10:29:31;14.50;;;7.70;;
73107;SDS011;61559;50.476;15.588;2024-02-14T10:32:02;16.40;;;8.40;;
73107;SDS011;61559;50.476;15.588;2024-02-14T10:34:34;12.60;;;7.10;;
73107;SDS011;61559;50.476;15.588;2024-02-14T10:37:09;13.50;;;7.60;;
73107;SDS011;61559;50.476;15.588;2024-02-14T10:39:42;16.20;;;8.20;;
73107;SDS011;61559;50.476;15.588;2024-02-14T10:42:14;13.90;;;7.80;;
73107;SDS011;61559;50.476;15.588;2024-02-14T10:44:47;10.80;;;6.60;;
73107;SDS011;61559;50.476;15.588;2024-02-14T10:47:20;142.10;;;47.00;;
73107;SDS011;61559;50.476;15.588;2024-02-14T10:49:54;46.40;;;17.30;;
73107;SDS011;61559;50.476;15.588;2024-02-14T10:52:27;19.70;;;9.10;;
73107;SDS011;61559;50.476;15.588;2024-02-14T10:55:02;11.20;;;6.30;;
73107;SDS011;61559;50.476;15.588;2024-02-14T10:57:34;8.60;;;4.60;;
73107;SDS011;61559;50.476;15.588;2024-02-14T11:00:07;9.10;;;4.80;;
73107;SDS011;61559;50.476;15.588;2024-02-14T11:02:42;8.10;;;4.10;;
73107;SDS011;61559;50.476;15.588;2024-02-14T11:05:15;8.80;;;5.50;;
73107;SDS011;61559;50.476;15.588;2024-02-14T11:07:51;17.30;;;8.30;;
73107;SDS011;61559;50.476;15.588;2024-02-14T11:10:22;13.70;;;7.10;;
73107;SDS011;61559;50.476;15.588;2024-02-14T11:12:54;9.90;;;4.60;;
73107;SDS011;61559;50.476;15.588;2024-02-14T11:15:25;8.20;;;3.90;;
73107;SDS011;61559;50.476;15.588;2024-02-14T11:18:04;7.00;;;4.00;;
73107;SDS011;61559;50.476;15.588;2024-02-14T11:20:37;9.30;;;3.70;;
73107;SDS011;61559;50.476;15.588;2024-02-14T11:23:10;9.70;;;5.30;;
73107;SDS011;61559;50.476;15.588;2024-02-14T11:25:43;34.00;;;16.30;;
73107;SDS011;61559;50.476;15.588;2024-02-14T11:28:16;12.10;;;6.10;;
73107;SDS011;61559;50.476;15.588;2024-02-14T11:30:48;13.90;;;8.00;;
73107;SDS011;61559;50.476;15.588;2024-02-14T11:33:20;8.20;;;4.70;;
73107;SDS011;61559;50.476;15.588;2024-02-14T11:35:53;6.70;;;4.20;;
73107;SDS011;61559;50.476;15.588;2024-02-14T11:38:27;9.00;;;4.50;;
73107;SDS011;61559;50.476;15.588;2024-02-14T11:40:58;6.30;;;3.70;;
73107;SDS011;61559;50.476;15.588;2024-02-14T11:43:29;9.30;;;3.80;;
73107;SDS011;61559;50.476;15.588;2024-02-14T11:46:00;14.50;;;7.20;;
73107;SDS011;61559;50.476;15.588;2024-02-14T11:48:33;9.40;;;4.60;;
73107;SDS011;61559;50.476;15.588;2024-02-14T11:51:08;8.00;;;5.00;;
73107;SDS011;61559;50.476;15.588;2024-02-14T11:53:40;10.80;;;6.10;;
73107;SDS011;61559;50.476;15.588;2024-02-14T11:56:11;7.40;;;5.40;;
73107;SDS011;61559;50.476;15.588;2024-02-14T11:58:43;6.80;;;3.50;;
73107;SDS011;61559;50.476;15.588;2024-02-14T12:01:16;6.30;;;3.80;;
73107;SDS011;61559;50.476;15.588;2024-02-14T12:03:47;7.40;;;3.40;;
73107;SDS011;61559;50.476;15.588;2024-02-14T12:06:20;8.20;;;3.60;;
73107;SDS011;61559;50.476;15.588;2024-02-14T12:08:51;6.10;;;3.50;;
73107;SDS011;61559;50.476;15.588;2024-02-14T12:11:22;13.50;;;5.50;;
73107;SDS011;61559;50.476;15.588;2024-02-14T12:13:55;16.00;;;8.10;;
73107;SDS011;61559;50.476;15.588;2024-02-14T12:16:26;9.70;;;4.80;;
73107;SDS011;61559;50.476;15.588;2024-02-14T12:21:38;12.70;;;5.10;;
73107;SDS011;61559;50.476;15.588;2024-02-14T12:24:12;14.20;;;6.40;;
73107;SDS011;61559;50.476;15.588;2024-02-14T12:26:44;18.10;;;10.10;;
73107;SDS011;61559;50.476;15.588;2024-02-14T12:29:17;16.60;;;9.10;;
73107;SDS011;61559;50.476;15.588;2024-02-14T12:34:17;10.30;;;5.70;;
73107;SDS011;61559;50.476;15.588;2024-02-14T12:36:52;6.50;;;4.30;;
73107;SDS011;61559;50.476;15.588;2024-02-14T12:39:23;11.90;;;6.80;;
73107;SDS011;61559;50.476;15.588;2024-02-14T12:41:55;12.30;;;6.20;;
73107;SDS011;61559;50.476;15.588;2024-02-14T12:44:26;27.70;;;13.40;;
73107;SDS011;61559;50.476;15.588;2024-02-14T12:46:58;18.70;;;8.50;;
73107;SDS011;61559;50.476;15.588;2024-02-14T12:49:29;14.70;;;6.80;;
73107;SDS011;61559;50.476;15.588;2024-02-14T12:52:01;11.60;;;5.70;;
73107;SDS011;61559;50.476;15.588;2024-02-14T12:54:33;9.30;;;4.80;;
73107;SDS011;61559;50.476;15.588;2024-02-14T12:57:05;23.30;;;9.90;;
73107;SDS011;61559;50.476;15.588;2024-02-14T12:59:36;17.70;;;9.00;;
73107;SDS011;61559;50.476;15.588;2024-02-14T13:02:07;7.30;;;4.40;;
73107;SDS011;61559;50.476;15.588;2024-02-14T13:04:39;8.70;;;4.30;;
73107;SDS011;61559;50.476;15.588;2024-02-14T13:07:13;19.40;;;10.00;;
73107;SDS011;61559;50.476;15.588;2024-02-14T13:09:44;10.80;;;4.80;;
73107;SDS011;61559;50.476;15.588;2024-02-14T13:12:16;13.80;;;6.30;;
73107;SDS011;61559;50.476;15.588;2024-02-14T13:14:47;10.40;;;6.10;;
73107;SDS011;61559;50.476;15.588;2024-02-14T13:17:18;8.30;;;4.30;;
73107;SDS011;61559;50.476;15.588;2024-02-14T13:22:21;49.10;;;21.40;;
73107;SDS011;61559;50.476;15.588;2024-02-14T13:24:53;62.20;;;24.10;;
73107;SDS011;61559;50.476;15.588;2024-02-14T13:27:24;21.70;;;8.80;;
73107;SDS011;61559;50.476;15.588;2024-02-14T13:32:25;10.00;;;4.60;;
73107;SDS011;61559;50.476;15.588;2024-02-14T13:34:56;10.00;;;4.80;;
73107;SDS011;61559;50.476;15.588;2024-02-14T13:37:29;5.80;;;3.60;;
73107;SDS011;61559;50.476;15.588;2024-02-14T13:40:01;16.10;;;6.50;;
73107;SDS011;61559;50.476;15.588;2024-02-14T13:45:08;9.50;;;3.60;;
73107;SDS011;61559;50.476;15.588;2024-02-14T13:47:40;9.00;;;3.90;;
73107;SDS011;61559;50.476;15.588;2024-02-14T13:50:12;6.20;;;3.70;;
73107;SDS011;61559;50.476;15.588;2024-02-14T13:52:43;8.00;;;4.20;;
73107;SDS011;61559;50.476;15.588;2024-02-14T13:55:15;7.70;;;3.00;;
73107;SDS011;61559;50.476;15.588;2024-02-14T13:57:46;8.70;;;3.90;;
73107;SDS011;61559;50.476;15.588;2024-02-14T14:00:17;6.60;;;3.50;;
73107;SDS011;61559;50.476;15.588;2024-02-14T14:02:49;6.70;;;3.80;;
73107;SDS011;61559;50.476;15.588;2024-02-14T14:05:20;8.00;;;3.50;;
73107;SDS011;61559;50.476;15.588;2024-02-14T14:10:26;5.50;;;3.30;;
73107;SDS011;61559;50.476;15.588;2024-02-14T14:12:57;7.80;;;3.80;;
73107;SDS011;61559;50.476;15.588;2024-02-14T14:15:29;7.30;;;3.10;;
73107;SDS011;61559;50.476;15.588;2024-02-14T14:18:01;5.00;;;2.60;;
73107;SDS011;61559;50.476;15.588;2024-02-14T14:20:32;8.10;;;3.30;;
73107;SDS011;61559;50.476;15.588;2024-02-14T14:25:32;6.20;;;3.40;;
73107;SDS011;61559;50.476;15.588;2024-02-14T14:28:06;4.80;;;3.30;;
73107;SDS011;61559;50.476;15.588;2024-02-14T14:30:37;5.60;;;3.10;;
73107;SDS011;61559;50.476;15.588;2024-02-14T14:35:39;5.90;;;3.00;;
73107;SDS011;61559;50.476;15.588;2024-02-14T14:38:10;11.90;;;4.90;;
73107;SDS011;61559;50.476;15.588;2024-02-14T14:40:43;11.20;;;6.20;;
73107;SDS011;61559;50.476;15.588;2024-02-14T14:43:14;7.50;;;4.10;;
73107;SDS011;61559;50.476;15.588;2024-02-14T14:45:47;5.90;;;4.00;;
73107;SDS011;61559;50.476;15.588;2024-02-14T14:48:19;7.80;;;3.90;;
73107;SDS011;61559;50.476;15.588;2024-02-14T14:50:50;7.40;;;4.20;;
73107;SDS011;61559;50.476;15.588;2024-02-14T14:53:22;10.10;;;5.60;;
73107;SDS011;61559;50.476;15.588;2024-02-14T14:55:54;7.10;;;4.00;;
73107;SDS011;61559;50.476;15.588;2024-02-14T14:58:27;9.00;;;4.10;;
73107;SDS011;61559;50.476;15.588;2024-02-14T15:01:01;10.40;;;4.40;;
73107;SDS011;61559;50.476;15.588;2024-02-14T15:03:33;8.00;;;4.40;;
73107;SDS011;61559;50.476;15.588;2024-02-14T15:11:04;6.40;;;3.30;;
73107;SDS011;61559;50.476;15.588;2024-02-14T15:13:35;6.60;;;4.00;;
73107;SDS011;61559;50.476;15.588;2024-02-14T15:18:37;6.60;;;3.60;;
73107;SDS011;61559;50.476;15.588;2024-02-14T15:21:08;87.80;;;30.80;;
73107;SDS011;61559;50.476;15.588;2024-02-14T15:23:42;27.20;;;11.40;;
73107;SDS011;61559;50.476;15.588;2024-02-14T15:28:45;8.00;;;4.40;;
73107;SDS011;61559;50.476;15.588;2024-02-14T15:31:23;7.90;;;4.20;;
73107;SDS011;61559;50.476;15.588;2024-02-14T15:34:12;12.50;;;5.70;;
73107;SDS011;61559;50.476;15.588;2024-02-14T15:36:44;30.80;;;12.30;;
73107;SDS011;61559;50.476;15.588;2024-02-14T15:39:15;107.30;;;38.10;;
73107;SDS011;61559;50.476;15.588;2024-02-14T15:41:46;28.70;;;13.60;;